sensor_id;sensor_type;location;lat;lon;timestamp;pressure;altitude;pressure_sealevel;temperature;humidity
54194;BME280;40102;50.906;6.972;2022-11-20T00:00:36;100607.84;;;4.90;71.38
54194;BME280;40102;50.906;6.972;2022-11-20T00:03:01;100609.31;;;4.72;70.87
54194;BME280;40102;50.906;6.972;2022-11-20T00:05:26;100606.25;;;4.58;71.80
54194;BME280;40102;50.906;6.972;2022-11-20T00:07:52;100613.59;;;4.50;72.36
54194;BME280;40102;50.906;6.972;2022-11-20T00:10:17;100622.41;;;4.50;72.92
54194;BME280;40102;50.906;6.972;2022-11-20T00:12:42;100616.44;;;4.44;72.33
54194;BME280;40102;50.906;6.972;2022-11-20T00:15:08;100613.88;;;4.41;72.41
54194;BME280;40102;50.906;6.972;2022-11-20T00:17:33;100610.50;;;4.36;72.46
54194;BME280;40102;50.906;6.972;2022-11-20T00:19:59;100604.78;;;4.21;72.98
54194;BME280;40102;50.906;6.972;2022-11-20T00:22:24;100612.63;;;4.25;73.91
54194;BME280;40102;50.906;6.972;2022-11-20T00:24:49;100607.06;;;4.34;73.32
54194;BME280;40102;50.906;6.972;2022-11-20T00:27:14;100617.25;;;4.46;72.90
54194;BME280;40102;50.906;6.972;2022-11-20T00:29:40;100613.09;;;4.65;72.91
54194;BME280;40102;50.906;6.972;2022-11-20T00:32:05;100607.13;;;4.85;72.21
54194;BME280;40102;50.906;6.972;2022-11-20T00:34:30;100613.94;;;4.92;70.37
54194;BME280;40102;50.906;6.972;2022-11-20T00:36:55;100610.63;;;4.85;69.83
54194;BME280;40102;50.906;6.972;2022-11-20T00:39:21;100598.81;;;4.69;69.72
54194;BME280;40102;50.906;6.972;2022-11-20T00:41:46;100612.78;;;4.48;70.86
54194;BME280;40102;50.906;6.972;2022-11-20T00:44:11;100605.31;;;4.33;71.43
54194;BME280;40102;50.906;6.972;2022-11-20T00:46:36;100598.25;;;4.33;72.59
54194;BME280;40102;50.906;6.972;2022-11-20T00:49:02;100605.06;;;4.40;72.49
54194;BME280;40102;50.906;6.972;2022-11-20T00:51:27;100592.91;;;4.61;72.72
54194;BME280;40102;50.906;6.972;2022-11-20T00:53:54;100597.66;;;4.78;71.90
54194;BME280;40102;50.906;6.972;2022-11-20T00:56:20;100591.78;;;4.95;71.14
54194;BME280;40102;50.906;6.972;2022-11-20T00:58:46;100595.06;;;5.01;69.85
54194;BME280;40102;50.906;6.972;2022-11-20T01:03:48;100602.81;;;5.07;69.09
54194;BME280;40102;50.906;6.972;2022-11-20T01:06:17;100608.16;;;5.06;68.68
54194;BME280;40102;50.906;6.972;2022-11-20T01:08:43;100614.19;;;5.11;69.17
54194;BME280;40102;50.906;6.972;2022-11-20T01:11:10;100608.47;;;5.21;69.27
54194;BME280;40102;50.906;6.972;2022-11-20T01:13:36;100612.69;;;5.27;68.66
54194;BME280;40102;50.906;6.972;2022-11-20T01:16:06;100604.50;;;5.33;68.45
54194;BME280;40102;50.906;6.972;2022-11-20T01:18:32;100607.69;;;5.43;68.54
54194;BME280;40102;50.906;6.972;2022-11-20T01:21:05;100610.94;;;5.51;68.16
54194;BME280;40102;50.906;6.972;2022-11-20T01:23:31;100600.59;;;5.43;66.71
54194;BME280;40102;50.906;6.972;2022-11-20T01:25:58;100611.75;;;5.28;67.41
54194;BME280;40102;50.906;6.972;2022-11-20T01:28:24;100606.00;;;5.17;67.51
54194;BME280;40102;50.906;6.972;2022-11-20T01:30:49;100603.47;;;5.14;67.92
54194;BME280;40102;50.906;6.972;2022-11-20T01:33:14;100598.28;;;5.11;67.75
54194;BME280;40102;50.906;6.972;2022-11-20T01:35:39;100594.81;;;5.09;67.55
54194;BME280;40102;50.906;6.972;2022-11-20T01:38:05;100596.69;;;5.05;67.96
54194;BME280;40102;50.906;6.972;2022-11-20T01:40:30;100590.75;;;4.99;67.72
54194;BME280;40102;50.906;6.972;2022-11-20T01:43:01;100585.84;;;4.62;68.85
54194;BME280;40102;50.906;6.972;2022-11-20T01:48:18;100593.09;;;4.01;71.73
54194;BME280;40102;50.906;6.972;2022-11-20T01:50:44;100598.53;;;3.96;72.83
54194;BME280;40102;50.906;6.972;2022-11-20T01:53:11;100589.03;;;3.89;73.14
54194;BME280;40102;50.906;6.972;2022-11-20T01:55:43;100572.44;;;3.84;73.70
54194;BME280;40102;50.906;6.972;2022-11-20T01:58:09;100578.13;;;4.00;74.38
54194;BME280;40102;50.906;6.972;2022-11-20T02:00:35;100575.72;;;4.20;73.87
54194;BME280;40102;50.906;6.972;2022-11-20T02:03:01;100570.53;;;4.43;73.67
54194;BME280;40102;50.906;6.972;2022-11-20T02:05:31;100569.84;;;4.65;72.75
54194;BME280;40102;50.906;6.972;2022-11-20T02:07:58;100570.94;;;4.84;71.72
54194;BME280;40102;50.906;6.972;2022-11-20T02:10:24;100558.13;;;4.97;70.65
54194;BME280;40102;50.906;6.972;2022-11-20T02:12:49;100547.34;;;5.01;69.85
54194;BME280;40102;50.906;6.972;2022-11-20T02:15:33;100548.97;;;5.05;69.30
54194;BME280;40102;50.906;6.972;2022-11-20T02:17:59;100553.03;;;4.91;68.68
54194;BME280;40102;50.906;6.972;2022-11-20T02:20:24;100564.16;;;4.75;69.70
54194;BME280;40102;50.906;6.972;2022-11-20T02:22:51;100574.06;;;4.70;70.46
54194;BME280;40102;50.906;6.972;2022-11-20T02:25:19;100569.38;;;4.78;70.52
54194;BME280;40102;50.906;6.972;2022-11-20T02:27:44;100574.78;;;4.75;69.85
54194;BME280;40102;50.906;6.972;2022-11-20T02:30:10;100571.38;;;4.45;70.75
54194;BME280;40102;50.906;6.972;2022-11-20T02:32:36;100572.81;;;4.28;71.61
54194;BME280;40102;50.906;6.972;2022-11-20T02:37:33;100568.59;;;3.94;73.26
54194;BME280;40102;50.906;6.972;2022-11-20T02:40:00;100562.94;;;3.77;74.12
54194;BME280;40102;50.906;6.972;2022-11-20T02:42:25;100555.28;;;3.68;74.15
54194;BME280;40102;50.906;6.972;2022-11-20T02:44:50;100552.81;;;3.62;74.38
54194;BME280;40102;50.906;6.972;2022-11-20T02:47:16;100545.72;;;3.64;75.55
54194;BME280;40102;50.906;6.972;2022-11-20T02:49:41;100558.31;;;3.55;75.34
54194;BME280;40102;50.906;6.972;2022-11-20T02:52:06;100553.22;;;3.48;75.73
54194;BME280;40102;50.906;6.972;2022-11-20T02:54:31;100547.34;;;3.38;75.64
54194;BME280;40102;50.906;6.972;2022-11-20T02:56:57;100546.44;;;3.39;75.52
54194;BME280;40102;50.906;6.972;2022-11-20T02:59:22;100546.53;;;3.36;75.33
54194;BME280;40102;50.906;6.972;2022-11-20T03:01:47;100551.03;;;3.33;75.40
54194;BME280;40102;50.906;6.972;2022-11-20T03:04:12;100551.78;;;3.38;76.72
54194;BME280;40102;50.906;6.972;2022-11-20T03:06:37;100550.50;;;3.51;75.18
54194;BME280;40102;50.906;6.972;2022-11-20T03:09:03;100545.03;;;3.57;74.94
54194;BME280;40102;50.906;6.972;2022-11-20T03:11:28;100538.78;;;3.60;74.60
54194;BME280;40102;50.906;6.972;2022-11-20T03:13:53;100543.03;;;3.65;74.29
54194;BME280;40102;50.906;6.972;2022-11-20T03:16:19;100545.25;;;3.79;74.33
54194;BME280;40102;50.906;6.972;2022-11-20T03:18:45;100534.28;;;3.91;74.00
54194;BME280;40102;50.906;6.972;2022-11-20T03:21:11;100545.31;;;4.05;72.94
54194;BME280;40102;50.906;6.972;2022-11-20T03:23:37;100548.63;;;4.12;72.84
54194;BME280;40102;50.906;6.972;2022-11-20T03:26:07;100539.53;;;4.20;72.15
54194;BME280;40102;50.906;6.972;2022-11-20T03:28:32;100535.91;;;4.23;73.03
54194;BME280;40102;50.906;6.972;2022-11-20T03:30:57;100542.63;;;4.33;71.45
54194;BME280;40102;50.906;6.972;2022-11-20T03:33:22;100534.31;;;4.17;71.96
54194;BME280;40102;50.906;6.972;2022-11-20T03:35:47;100534.47;;;4.13;73.00
54194;BME280;40102;50.906;6.972;2022-11-20T03:38:13;100535.72;;;4.29;73.18
54194;BME280;40102;50.906;6.972;2022-11-20T03:40:38;100532.91;;;4.34;71.89
54194;BME280;40102;50.906;6.972;2022-11-20T03:43:03;100541.41;;;4.43;71.40
54194;BME280;40102;50.906;6.972;2022-11-20T03:45:28;100534.13;;;4.50;71.22
54194;BME280;40102;50.906;6.972;2022-11-20T03:47:54;100531.94;;;4.63;70.70
54194;BME280;40102;50.906;6.972;2022-11-20T03:50:19;100528.84;;;4.75;70.23
54194;BME280;40102;50.906;6.972;2022-11-20T03:52:44;100523.28;;;4.82;70.19
54194;BME280;40102;50.906;6.972;2022-11-20T03:55:09;100525.72;;;4.88;69.95
54194;BME280;40102;50.906;6.972;2022-11-20T03:57:35;100532.91;;;4.85;69.35
54194;BME280;40102;50.906;6.972;2022-11-20T04:00:00;100532.38;;;4.75;69.89
54194;BME280;40102;50.906;6.972;2022-11-20T04:02:25;100525.41;;;4.73;70.88
54194;BME280;40102;50.906;6.972;2022-11-20T04:04:51;100520.84;;;4.51;70.62
54194;BME280;40102;50.906;6.972;2022-11-20T04:07:16;100524.19;;;4.30;72.11
54194;BME280;40102;50.906;6.972;2022-11-20T04:09:41;100522.63;;;4.25;73.10
54194;BME280;40102;50.906;6.972;2022-11-20T04:12:06;100526.19;;;4.23;73.26
54194;BME280;40102;50.906;6.972;2022-11-20T04:14:31;100527.19;;;4.19;73.21
54194;BME280;40102;50.906;6.972;2022-11-20T04:16:57;100513.59;;;4.04;73.66
54194;BME280;40102;50.906;6.972;2022-11-20T04:19:22;100512.41;;;3.86;74.86
54194;BME280;40102;50.906;6.972;2022-11-20T04:21:47;100505.41;;;3.83;76.12
54194;BME280;40102;50.906;6.972;2022-11-20T04:24:12;100507.06;;;3.87;76.20
54194;BME280;40102;50.906;6.972;2022-11-20T04:26:38;100504.06;;;3.98;76.08
54194;BME280;40102;50.906;6.972;2022-11-20T04:29:04;100506.13;;;3.88;75.96
54194;BME280;40102;50.906;6.972;2022-11-20T04:31:29;100510.13;;;3.74;76.22
54194;BME280;40102;50.906;6.972;2022-11-20T04:33:58;100510.41;;;3.65;76.97
54194;BME280;40102;50.906;6.972;2022-11-20T04:36:24;100511.84;;;3.47;77.70
54194;BME280;40102;50.906;6.972;2022-11-20T04:38:50;100501.41;;;3.42;78.22
54194;BME280;40102;50.906;6.972;2022-11-20T04:41:17;100506.78;;;3.39;78.82
54194;BME280;40102;50.906;6.972;2022-11-20T04:43:46;100505.88;;;3.40;78.84
54194;BME280;40102;50.906;6.972;2022-11-20T04:46:11;100511.16;;;3.40;78.87
54194;BME280;40102;50.906;6.972;2022-11-20T04:48:36;100516.13;;;3.51;79.78
54194;BME280;40102;50.906;6.972;2022-11-20T04:51:05;100514.56;;;3.73;79.83
54194;BME280;40102;50.906;6.972;2022-11-20T04:53:30;100526.81;;;4.04;79.33
54194;BME280;40102;50.906;6.972;2022-11-20T04:56:00;100525.06;;;4.31;78.33
54194;BME280;40102;50.906;6.972;2022-11-20T04:58:25;100523.44;;;4.53;77.14
54194;BME280;40102;50.906;6.972;2022-11-20T05:00:50;100528.84;;;4.75;75.83
54194;BME280;40102;50.906;6.972;2022-11-20T05:03:16;100532.66;;;4.93;74.78
54194;BME280;40102;50.906;6.972;2022-11-20T05:05:41;100528.63;;;5.06;73.75
54194;BME280;40102;50.906;6.972;2022-11-20T05:08:07;100527.28;;;5.19;72.76
54194;BME280;40102;50.906;6.972;2022-11-20T05:10:32;100527.06;;;5.24;71.76
54194;BME280;40102;50.906;6.972;2022-11-20T05:12:57;100534.81;;;5.30;71.56
54194;BME280;40102;50.906;6.972;2022-11-20T05:15:22;100530.13;;;5.36;71.43
54194;BME280;40102;50.906;6.972;2022-11-20T05:17:48;100531.69;;;5.42;71.04
54194;BME280;40102;50.906;6.972;2022-11-20T05:20:14;100519.13;;;5.47;70.72
54194;BME280;40102;50.906;6.972;2022-11-20T05:22:39;100521.47;;;5.54;70.27
54194;BME280;40102;50.906;6.972;2022-11-20T05:25:04;100527.47;;;5.60;70.08
54194;BME280;40102;50.906;6.972;2022-11-20T05:27:29;100518.53;;;5.62;70.00
54194;BME280;40102;50.906;6.972;2022-11-20T05:29:55;100525.44;;;5.66;69.83
54194;BME280;40102;50.906;6.972;2022-11-20T05:32:20;100536.88;;;5.68;69.63
54194;BME280;40102;50.906;6.972;2022-11-20T05:34:45;100515.53;;;5.71;69.54
54194;BME280;40102;50.906;6.972;2022-11-20T05:37:10;100522.50;;;5.74;69.43
54194;BME280;40102;50.906;6.972;2022-11-20T05:39:36;100518.97;;;5.73;69.19
54194;BME280;40102;50.906;6.972;2022-11-20T05:42:01;100525.28;;;5.71;69.09
54194;BME280;40102;50.906;6.972;2022-11-20T05:44:45;100512.88;;;5.71;69.34
54194;BME280;40102;50.906;6.972;2022-11-20T05:47:10;100520.72;;;5.74;69.37
54194;BME280;40102;50.906;6.972;2022-11-20T05:49:35;100519.72;;;5.77;69.33
54194;BME280;40102;50.906;6.972;2022-11-20T05:52:00;100516.97;;;5.80;69.16
54194;BME280;40102;50.906;6.972;2022-11-20T05:54:26;100515.97;;;5.82;69.19
54194;BME280;40102;50.906;6.972;2022-11-20T05:56:51;100515.03;;;5.83;69.12
54194;BME280;40102;50.906;6.972;2022-11-20T05:59:16;100520.22;;;5.86;69.15
54194;BME280;40102;50.906;6.972;2022-11-20T06:01:41;100512.28;;;5.86;68.92
54194;BME280;40102;50.906;6.972;2022-11-20T06:04:07;100515.78;;;5.87;68.87
54194;BME280;40102;50.906;6.972;2022-11-20T06:06:32;100514.06;;;5.86;69.01
54194;BME280;40102;50.906;6.972;2022-11-20T06:08:57;100518.50;;;5.85;68.91
54194;BME280;40102;50.906;6.972;2022-11-20T06:11:24;100520.34;;;5.83;68.91
54194;BME280;40102;50.906;6.972;2022-11-20T06:13:49;100516.91;;;5.81;69.04
54194;BME280;40102;50.906;6.972;2022-11-20T06:16:15;100513.75;;;5.72;69.18
54194;BME280;40102;50.906;6.972;2022-11-20T06:18:41;100517.34;;;5.47;70.76
54194;BME280;40102;50.906;6.972;2022-11-20T06:23:32;100517.44;;;5.21;71.98
54194;BME280;40102;50.906;6.972;2022-11-20T06:26:00;100515.66;;;4.98;72.58
54194;BME280;40102;50.906;6.972;2022-11-20T06:28:25;100521.06;;;4.70;73.83
54194;BME280;40102;50.906;6.972;2022-11-20T06:30:51;100511.06;;;4.53;74.63
54194;BME280;40102;50.906;6.972;2022-11-20T06:33:16;100515.91;;;4.41;75.75
54194;BME280;40102;50.906;6.972;2022-11-20T06:35:41;100512.47;;;4.37;76.34
54194;BME280;40102;50.906;6.972;2022-11-20T06:38:06;100518.94;;;4.29;76.02
54194;BME280;40102;50.906;6.972;2022-11-20T06:40:31;100521.19;;;4.14;77.06
54194;BME280;40102;50.906;6.972;2022-11-20T06:42:57;100527.03;;;3.98;77.80
54194;BME280;40102;50.906;6.972;2022-11-20T06:45:22;100523.69;;;3.91;78.60
54194;BME280;40102;50.906;6.972;2022-11-20T06:47:47;100532.22;;;4.01;79.01
54194;BME280;40102;50.906;6.972;2022-11-20T06:50:12;100539.25;;;4.02;78.16
54194;BME280;40102;50.906;6.972;2022-11-20T06:52:38;100535.81;;;3.98;78.42
54194;BME280;40102;50.906;6.972;2022-11-20T06:55:03;100536.94;;;3.91;78.90
54194;BME280;40102;50.906;6.972;2022-11-20T06:57:28;100535.44;;;3.82;78.77
54194;BME280;40102;50.906;6.972;2022-11-20T06:59:54;100531.25;;;3.75;79.49
54194;BME280;40102;50.906;6.972;2022-11-20T07:02:19;100530.91;;;3.86;80.25
54194;BME280;40102;50.906;6.972;2022-11-20T07:04:44;100535.63;;;4.04;80.37
54194;BME280;40102;50.906;6.972;2022-11-20T07:07:09;100538.59;;;4.21;79.96
54194;BME280;40102;50.906;6.972;2022-11-20T07:09:34;100545.03;;;4.41;78.41
54194;BME280;40102;50.906;6.972;2022-11-20T07:12:00;100532.97;;;4.32;76.34
54194;BME280;40102;50.906;6.972;2022-11-20T07:14:25;100543.28;;;4.13;77.27
54194;BME280;40102;50.906;6.972;2022-11-20T07:16:50;100547.41;;;3.94;77.88
54194;BME280;40102;50.906;6.972;2022-11-20T07:19:15;100562.75;;;3.83;78.73
54194;BME280;40102;50.906;6.972;2022-11-20T07:21:41;100560.94;;;3.85;79.33
54194;BME280;40102;50.906;6.972;2022-11-20T07:24:06;100557.97;;;3.96;79.23
54194;BME280;40102;50.906;6.972;2022-11-20T07:26:32;100557.72;;;4.03;78.58
54194;BME280;40102;50.906;6.972;2022-11-20T07:28:57;100561.28;;;4.02;77.95
54194;BME280;40102;50.906;6.972;2022-11-20T07:31:22;100565.03;;;3.95;78.26
54194;BME280;40102;50.906;6.972;2022-11-20T07:33:47;100559.69;;;3.97;78.80
54194;BME280;40102;50.906;6.972;2022-11-20T07:36:13;100564.47;;;4.13;79.44
54194;BME280;40102;50.906;6.972;2022-11-20T07:38:38;100548.75;;;4.35;78.54
54194;BME280;40102;50.906;6.972;2022-11-20T07:41:03;100560.06;;;4.40;76.95
54194;BME280;40102;50.906;6.972;2022-11-20T07:43:29;100556.34;;;4.46;76.88
54194;BME280;40102;50.906;6.972;2022-11-20T07:45:55;100568.56;;;4.50;76.68
54194;BME280;40102;50.906;6.972;2022-11-20T07:48:20;100558.41;;;4.63;76.76
54194;BME280;40102;50.906;6.972;2022-11-20T07:50:45;100550.00;;;4.76;75.55
54194;BME280;40102;50.906;6.972;2022-11-20T07:53:10;100543.34;;;4.90;74.86
54194;BME280;40102;50.906;6.972;2022-11-20T07:55:37;100549.25;;;4.98;74.61
54194;BME280;40102;50.906;6.972;2022-11-20T07:58:02;100544.75;;;5.00;73.97
54194;BME280;40102;50.906;6.972;2022-11-20T08:00:28;100544.72;;;5.01;74.08
54194;BME280;40102;50.906;6.972;2022-11-20T08:02:53;100550.59;;;5.09;73.94
54194;BME280;40102;50.906;6.972;2022-11-20T08:05:18;100547.69;;;5.17;73.46
54194;BME280;40102;50.906;6.972;2022-11-20T08:07:44;100557.31;;;5.19;73.01
54194;BME280;40102;50.906;6.972;2022-11-20T08:10:10;100557.22;;;5.21;73.25
54194;BME280;40102;50.906;6.972;2022-11-20T08:12:39;100551.00;;;5.22;72.86
54194;BME280;40102;50.906;6.972;2022-11-20T08:15:26;100550.38;;;4.91;74.59
54194;BME280;40102;50.906;6.972;2022-11-20T08:17:51;100545.41;;;4.81;75.43
54194;BME280;40102;50.906;6.972;2022-11-20T08:20:16;100554.16;;;4.83;75.55
54194;BME280;40102;50.906;6.972;2022-11-20T08:22:42;100553.09;;;4.89;74.75
54194;BME280;40102;50.906;6.972;2022-11-20T08:25:07;100547.13;;;4.82;75.26
54194;BME280;40102;50.906;6.972;2022-11-20T08:27:32;100544.00;;;4.71;76.01
54194;BME280;40102;50.906;6.972;2022-11-20T08:29:58;100546.69;;;4.70;76.98
54194;BME280;40102;50.906;6.972;2022-11-20T08:32:23;100552.59;;;4.78;76.28
54194;BME280;40102;50.906;6.972;2022-11-20T08:34:48;100556.22;;;4.75;75.37
54194;BME280;40102;50.906;6.972;2022-11-20T08:37:13;100551.94;;;4.71;75.81
54194;BME280;40102;50.906;6.972;2022-11-20T08:39:38;100562.75;;;4.65;75.71
54194;BME280;40102;50.906;6.972;2022-11-20T08:42:07;100558.78;;;4.52;76.51
54194;BME280;40102;50.906;6.972;2022-11-20T08:44:33;100555.31;;;4.50;76.95
54194;BME280;40102;50.906;6.972;2022-11-20T08:46:58;100544.47;;;4.58;77.32
54194;BME280;40102;50.906;6.972;2022-11-20T08:49:23;100551.13;;;4.69;76.58
54194;BME280;40102;50.906;6.972;2022-11-20T08:51:48;100557.56;;;4.87;76.12
54194;BME280;40102;50.906;6.972;2022-11-20T08:54:16;100550.88;;;5.02;75.39
54194;BME280;40102;50.906;6.972;2022-11-20T08:56:44;100553.69;;;4.97;74.80
54194;BME280;40102;50.906;6.972;2022-11-20T08:59:09;100559.16;;;4.93;75.80
54194;BME280;40102;50.906;6.972;2022-11-20T09:01:35;100550.13;;;4.98;75.59
54194;BME280;40102;50.906;6.972;2022-11-20T09:04:00;100564.56;;;4.90;75.50
54194;BME280;40102;50.906;6.972;2022-11-20T09:06:25;100558.59;;;4.83;75.73
54194;BME280;40102;50.906;6.972;2022-11-20T09:08:54;100556.22;;;4.75;76.23
54194;BME280;40102;50.906;6.972;2022-11-20T09:11:19;100552.81;;;4.72;77.34
54194;BME280;40102;50.906;6.972;2022-11-20T09:13:45;100552.00;;;4.70;76.58
54194;BME280;40102;50.906;6.972;2022-11-20T09:16:10;100552.31;;;4.61;76.58
54194;BME280;40102;50.906;6.972;2022-11-20T09:18:35;100543.16;;;4.44;77.53
54194;BME280;40102;50.906;6.972;2022-11-20T09:21:03;100539.00;;;4.36;78.07
54194;BME280;40102;50.906;6.972;2022-11-20T09:23:33;100541.91;;;4.28;79.08
54194;BME280;40102;50.906;6.972;2022-11-20T09:26:01;100526.84;;;4.30;79.69
54194;BME280;40102;50.906;6.972;2022-11-20T09:28:26;100531.31;;;4.28;79.18
54194;BME280;40102;50.906;6.972;2022-11-20T09:30:52;100540.09;;;4.30;79.30
54194;BME280;40102;50.906;6.972;2022-11-20T09:33:17;100526.78;;;4.32;79.04
54194;BME280;40102;50.906;6.972;2022-11-20T09:35:43;100524.19;;;4.30;79.37
54194;BME280;40102;50.906;6.972;2022-11-20T09:38:08;100526.03;;;4.28;78.95
54194;BME280;40102;50.906;6.972;2022-11-20T09:40:35;100521.59;;;4.29;79.03
54194;BME280;40102;50.906;6.972;2022-11-20T09:45:46;100529.25;;;4.38;79.25
54194;BME280;40102;50.906;6.972;2022-11-20T09:50:45;100531.88;;;4.64;77.98
54194;BME280;40102;50.906;6.972;2022-11-20T09:55:45;100525.72;;;4.64;77.56
54194;BME280;40102;50.906;6.972;2022-11-20T09:58:14;100526.63;;;4.63;77.85
54194;BME280;40102;50.906;6.972;2022-11-20T10:00:40;100525.09;;;4.55;78.04
54194;BME280;40102;50.906;6.972;2022-11-20T10:05:57;100531.47;;;4.50;78.55
54194;BME280;40102;50.906;6.972;2022-11-20T10:11:10;100533.56;;;4.40;79.34
54194;BME280;40102;50.906;6.972;2022-11-20T10:22:20;100518.22;;;4.50;79.36
54194;BME280;40102;50.906;6.972;2022-11-20T10:29:45;100512.19;;;4.71;78.50
54194;BME280;40102;50.906;6.972;2022-11-20T10:32:19;100503.53;;;4.66;78.84
54194;BME280;40102;50.906;6.972;2022-11-20T10:34:58;100490.63;;;4.57;79.27
54194;BME280;40102;50.906;6.972;2022-11-20T10:37:26;100482.72;;;4.55;80.36
54194;BME280;40102;50.906;6.972;2022-11-20T10:40:05;100481.75;;;4.58;81.21
54194;BME280;40102;50.906;6.972;2022-11-20T10:42:43;100475.44;;;4.62;81.18
54194;BME280;40102;50.906;6.972;2022-11-20T10:45:19;100467.44;;;4.64;80.96
54194;BME280;40102;50.906;6.972;2022-11-20T10:47:46;100465.66;;;4.64;81.43
54194;BME280;40102;50.906;6.972;2022-11-20T10:50:14;100469.25;;;4.62;80.97
54194;BME280;40102;50.906;6.972;2022-11-20T10:53:02;100456.19;;;4.57;81.06
54194;BME280;40102;50.906;6.972;2022-11-20T10:55:38;100465.81;;;4.60;81.42
54194;BME280;40102;50.906;6.972;2022-11-20T10:58:13;100459.44;;;4.65;81.07
54194;BME280;40102;50.906;6.972;2022-11-20T11:00:41;100456.03;;;4.62;80.50
54194;BME280;40102;50.906;6.972;2022-11-20T11:03:20;100444.88;;;4.52;80.94
54194;BME280;40102;50.906;6.972;2022-11-20T11:05:50;100437.84;;;4.51;81.50
54194;BME280;40102;50.906;6.972;2022-11-20T11:08:16;100436.03;;;4.53;80.97
54194;BME280;40102;50.906;6.972;2022-11-20T11:10:53;100432.56;;;4.51;80.75
54194;BME280;40102;50.906;6.972;2022-11-20T11:13:23;100427.38;;;4.48;81.16
54194;BME280;40102;50.906;6.972;2022-11-20T11:15:49;100426.66;;;4.43;81.51
54194;BME280;40102;50.906;6.972;2022-11-20T11:18:28;100415.22;;;4.42;81.58
54194;BME280;40102;50.906;6.972;2022-11-20T11:20:55;100418.44;;;4.50;81.80
54194;BME280;40102;50.906;6.972;2022-11-20T11:23:31;100421.84;;;4.54;82.12
54194;BME280;40102;50.906;6.972;2022-11-20T11:25:58;100411.84;;;4.62;81.19
54194;BME280;40102;50.906;6.972;2022-11-20T11:28:24;100415.31;;;4.64;81.11
54194;BME280;40102;50.906;6.972;2022-11-20T11:30:51;100409.03;;;4.67;81.46
54194;BME280;40102;50.906;6.972;2022-11-20T11:36:18;100394.59;;;4.75;80.99
54194;BME280;40102;50.906;6.972;2022-11-20T11:38:44;100395.34;;;4.79;80.89
54194;BME280;40102;50.906;6.972;2022-11-20T11:41:15;100389.97;;;4.80;80.77
54194;BME280;40102;50.906;6.972;2022-11-20T11:43:48;100389.13;;;4.80;81.20
54194;BME280;40102;50.906;6.972;2022-11-20T11:46:34;100381.06;;;4.83;81.05
54194;BME280;40102;50.906;6.972;2022-11-20T11:51:33;100380.13;;;4.84;81.14
54194;BME280;40102;50.906;6.972;2022-11-20T11:54:00;100372.25;;;4.82;82.03
54194;BME280;40102;50.906;6.972;2022-11-20T11:56:26;100373.91;;;4.85;82.20
54194;BME280;40102;50.906;6.972;2022-11-20T11:58:53;100376.50;;;4.86;82.11
54194;BME280;40102;50.906;6.972;2022-11-20T12:01:34;100366.53;;;4.93;82.24
54194;BME280;40102;50.906;6.972;2022-11-20T12:06:42;100349.66;;;4.96;81.08
54194;BME280;40102;50.906;6.972;2022-11-20T12:09:08;100354.38;;;4.87;81.54
54194;BME280;40102;50.906;6.972;2022-11-20T12:11:41;100343.91;;;4.84;81.41
54194;BME280;40102;50.906;6.972;2022-11-20T12:14:17;100343.16;;;4.81;81.13
54194;BME280;40102;50.906;6.972;2022-11-20T12:16:49;100325.53;;;4.80;81.18
54194;BME280;40102;50.906;6.972;2022-11-20T12:19:15;100335.25;;;4.79;80.95
54194;BME280;40102;50.906;6.972;2022-11-20T12:27:09;100327.19;;;4.82;80.94
54194;BME280;40102;50.906;6.972;2022-11-20T12:39:46;100311.22;;;4.84;82.85
54194;BME280;40102;50.906;6.972;2022-11-20T12:42:24;100309.31;;;4.87;82.78
54194;BME280;40102;50.906;6.972;2022-11-20T12:48:08;100298.25;;;5.00;81.89
54194;BME280;40102;50.906;6.972;2022-11-20T12:56:20;100290.09;;;5.04;80.73
54194;BME280;40102;50.906;6.972;2022-11-20T13:01:31;100278.22;;;5.14;82.00
54194;BME280;40102;50.906;6.972;2022-11-20T13:06:56;100268.19;;;5.21;81.74
54194;BME280;40102;50.906;6.972;2022-11-20T13:09:22;100259.31;;;5.22;81.77
54194;BME280;40102;50.906;6.972;2022-11-20T13:11:50;100258.38;;;5.23;81.84
54194;BME280;40102;50.906;6.972;2022-11-20T13:14:24;100257.47;;;5.24;81.56
54194;BME280;40102;50.906;6.972;2022-11-20T13:19:37;100245.34;;;5.18;80.82
54194;BME280;40102;50.906;6.972;2022-11-20T13:22:03;100233.72;;;5.21;81.73
54194;BME280;40102;50.906;6.972;2022-11-20T13:24:32;100233.59;;;5.24;82.01
54194;BME280;40102;50.906;6.972;2022-11-20T13:29:37;100218.34;;;5.29;81.44
54194;BME280;40102;50.906;6.972;2022-11-20T13:34:36;100218.28;;;5.31;81.35
54194;BME280;40102;50.906;6.972;2022-11-20T13:37:02;100215.50;;;5.34;81.90
54194;BME280;40102;50.906;6.972;2022-11-20T13:39:35;100209.22;;;5.36;82.16
54194;BME280;40102;50.906;6.972;2022-11-20T13:42:19;100206.50;;;5.38;81.44
54194;BME280;40102;50.906;6.972;2022-11-20T13:44:53;100205.69;;;5.36;82.07
54194;BME280;40102;50.906;6.972;2022-11-20T13:47:20;100201.59;;;5.29;82.12
54194;BME280;40102;50.906;6.972;2022-11-20T13:49:48;100191.97;;;5.26;82.46
54194;BME280;40102;50.906;6.972;2022-11-20T13:57:48;100176.78;;;5.30;82.59
54194;BME280;40102;50.906;6.972;2022-11-20T14:00:16;100175.94;;;5.29;82.52
54194;BME280;40102;50.906;6.972;2022-11-20T14:02:42;100170.56;;;5.31;82.81
54194;BME280;40102;50.906;6.972;2022-11-20T14:05:15;100175.72;;;5.34;83.25
54194;BME280;40102;50.906;6.972;2022-11-20T14:07:42;100161.75;;;5.30;82.90
54194;BME280;40102;50.906;6.972;2022-11-20T14:10:19;100159.03;;;5.32;83.18
54194;BME280;40102;50.906;6.972;2022-11-20T14:12:44;100157.16;;;5.34;82.53
54194;BME280;40102;50.906;6.972;2022-11-20T14:15:23;100164.91;;;5.38;82.47
54194;BME280;40102;50.906;6.972;2022-11-20T14:17:49;100157.03;;;5.37;82.15
54194;BME280;40102;50.906;6.972;2022-11-20T14:20:14;100146.44;;;5.37;82.19
54194;BME280;40102;50.906;6.972;2022-11-20T14:22:47;100141.25;;;5.34;82.80
54194;BME280;40102;50.906;6.972;2022-11-20T14:27:41;100127.94;;;5.35;83.21
54194;BME280;40102;50.906;6.972;2022-11-20T14:30:14;100121.34;;;5.44;83.51